Time;durP1;ratioP1;P1;durP2;ratioP2;P2;SDS_P1;SDS_P2;PMS_P1;PMS_P2;Temp;Humidity;BMP_temperature;BMP_pressure;BME280_temperature;BME280_humidity;BME280_pressure;Samples;Min_cycle;Max_cycle;Signal;HPM_P1;HPM_P2
2022/03/19 00:01:01;;;;;;;13.87;12.07;;;;;;;2.12;54.05;101851.69;5092562;28;20449;-69
2022/03/19 00:03:28;;;;;;;16.13;11.70;;;;;;;2.09;53.87;101852.69;5092236;28;20466;-69
2022/03/19 00:05:56;;;;;;;15.73;11.70;;;;;;;2.13;54.46;101853.38;5093079;28;20470;-69
2022/03/19 00:08:23;;;;;;;12.97;11.27;;;;;;;2.17;54.59;101853.09;5092524;28;20441;-68
2022/03/19 00:10:51;;;;;;;14.23;10.67;;;;;;;2.08;54.64;101848.38;5092440;28;20436;-68
2022/03/19 00:13:18;;;;;;;15.70;10.77;;;;;;;2.10;54.72;101854.38;5092462;28;20434;-68
2022/03/19 00:15:45;;;;;;;15.93;10.63;;;;;;;2.03;55.08;101849.53;5092407;28;20445;-68
2022/03/19 00:18:12;;;;;;;12.83;9.90;;;;;;;1.93;56.00;101848.38;5091967;28;20473;-68
2022/03/19 00:20:39;;;;;;;12.37;10.77;;;;;;;1.89;55.63;101847.72;5093144;28;20433;-68
2022/03/19 00:23:08;;;;;;;12.27;10.63;;;;;;;1.95;56.14;101844.72;5092066;28;20933;-68
2022/03/19 00:25:35;;;;;;;11.77;10.23;;;;;;;2.05;55.87;101845.09;5091977;28;20437;-68
2022/03/19 00:28:01;;;;;;;13.30;11.23;;;;;;;2.00;55.12;101845.31;5092224;28;20445;-68
2022/03/19 00:30:28;;;;;;;13.90;10.13;;;;;;;2.00;55.67;101836.63;5091935;28;21021;-67
2022/03/19 00:32:55;;;;;;;12.93;10.33;;;;;;;2.10;55.29;101843.03;5092249;28;20432;-67
2022/03/19 00:35:22;;;;;;;12.53;10.40;;;;;;;2.16;54.92;101843.53;5091847;28;20502;-67
2022/03/19 00:37:50;;;;;;;12.87;10.63;;;;;;;2.17;55.35;101834.75;5092648;28;20506;-67
2022/03/19 00:40:23;;;;;;;11.87;9.20;;;;;;;2.16;54.59;101840.09;5092158;28;20465;-67
2022/03/19 00:42:50;;;;;;;11.30;10.07;;;;;;;2.10;55.18;101843.91;5093042;28;20457;-67
2022/03/19 00:45:17;;;;;;;12.33;10.67;;;;;;;2.03;55.23;101842.53;5092109;28;20433;-67
2022/03/19 00:47:43;;;;;;;16.07;9.53;;;;;;;1.94;55.70;101827.31;5091773;28;20952;-68
2022/03/19 00:50:11;;;;;;;11.13;9.70;;;;;;;1.99;55.34;101832.28;5091774;28;20441;-68
2022/03/19 00:52:37;;;;;;;11.10;9.47;;;;;;;2.01;56.52;101841.78;5092070;28;20436;-67
2022/03/19 00:55:05;;;;;;;11.10;9.43;;;;;;;1.89;55.95;101842.47;5091707;28;20441;-67
2022/03/19 00:57:43;;;;;;;12.20;10.00;;;;;;;1.73;55.97;101838.97;5092000;28;20432;-68
2022/03/19 01:00:11;;;;;;;13.27;9.73;;;;;;;1.68;57.56;101843.63;5091661;28;20472;-68
2022/03/19 01:02:39;;;;;;;11.20;9.73;;;;;;;1.72;57.92;101839.06;5092476;28;20451;-68
2022/03/19 01:05:07;;;;;;;12.97;10.00;;;;;;;1.52;58.73;101834.03;5092069;28;20469;-68
2022/03/19 01:07:33;;;;;;;11.60;9.83;;;;;;;1.36;59.41;101828.78;5093796;28;20433;-68
2022/03/19 01:10:00;;;;;;;14.00;10.37;;;;;;;1.28;60.19;101841.44;5095401;28;20809;-68
2022/03/19 01:12:27;;;;;;;11.43;9.80;;;;;;;1.35;60.91;101837.53;5095922;28;20433;-67
2022/03/19 01:14:55;;;;;;;14.37;11.43;;;;;;;1.22;60.58;101841.72;5095682;28;20433;-68
2022/03/19 01:17:22;;;;;;;15.13;10.00;;;;;;;1.15;61.03;101836.91;5095833;28;20529;-68
2022/03/19 01:19:54;;;;;;;11.73;9.97;;;;;;;1.16;62.05;101831.59;5095127;28;21128;-70
2022/03/19 01:22:22;;;;;;;14.80;9.67;;;;;;;1.18;61.42;101841.97;5095239;28;20941;-68
2022/03/19 01:24:49;;;;;;;12.37;9.30;;;;;;;1.05;61.15;101838.31;5095411;28;20532;-68
2022/03/19 01:27:16;;;;;;;14.43;9.67;;;;;;;0.98;62.00;101836.91;5095435;28;20487;-68
2022/03/19 01:29:42;;;;;;;12.47;9.77;;;;;;;0.75;63.40;101835.47;5095053;28;20813;-68
2022/03/19 01:32:11;;;;;;;15.83;10.30;;;;;;;0.60;63.38;101835.41;5095310;28;20490;-68
2022/03/19 01:34:38;;;;;;;12.73;10.10;;;;;;;0.66;63.51;101830.69;5095539;28;20433;-68
2022/03/19 01:37:04;;;;;;;14.40;10.43;;;;;;;0.56;63.40;101832.06;5094888;28;20441;-68
2022/03/19 01:39:31;;;;;;;10.60;9.53;;;;;;;0.47;64.74;101824.69;5095071;28;20478;-68
2022/03/19 01:41:58;;;;;;;13.77;10.10;;;;;;;0.54;65.38;101820.84;5095371;28;20781;-68
2022/03/19 01:44:25;;;;;;;15.60;11.67;;;;;;;0.61;64.83;101827.44;5095048;28;20441;-68
2022/03/19 01:46:59;;;;;;;14.90;10.57;;;;;;;0.52;64.50;101827.09;5094386;28;21096;-68
2022/03/19 01:49:28;;;;;;;17.67;10.70;;;;;;;0.51;65.41;101815.75;5094756;28;20981;-68
2022/03/19 01:51:56;;;;;;;18.07;10.70;;;;;;;0.62;66.00;101817.84;5094704;28;20500;-68
2022/03/19 01:54:27;;;;;;;16.30;10.30;;;;;;;0.49;65.44;101816.75;5094939;28;20490;-68
2022/03/19 01:56:55;;;;;;;14.50;11.10;;;;;;;0.55;66.05;101812.06;5094777;28;20435;-68
2022/03/19 01:59:24;;;;;;;15.80;11.13;;;;;;;0.78;65.65;101819.63;5094440;28;20479;-68
2022/03/19 02:01:51;;;;;;;13.63;10.93;;;;;;;0.70;65.40;101824.41;5094863;28;20437;-68
2022/03/19 02:04:19;;;;;;;14.13;11.03;;;;;;;0.75;65.03;101814.53;5094493;28;20437;-68
2022/03/19 02:06:48;;;;;;;20.47;12.30;;;;;;;0.89;65.31;101813.84;5095305;28;20512;-68
2022/03/19 02:09:15;;;;;;;17.00;13.00;;;;;;;0.89;64.12;101812.06;5094871;28;20450;-68
2022/03/19 02:11:44;;;;;;;16.27;12.50;;;;;;;0.88;64.62;101814.75;5094538;28;20448;-68
2022/03/19 02:14:10;;;;;;;23.83;14.17;;;;;;;1.02;64.43;101812.28;5094507;28;20525;-68
2022/03/19 02:16:37;;;;;;;18.23;13.70;;;;;;;1.09;64.02;101824.13;5094678;28;20437;-67
2022/03/19 02:19:04;;;;;;;21.90;14.73;;;;;;;1.17;63.17;101827.19;5093860;28;20528;-68
2022/03/19 02:21:40;;;;;;;22.93;14.90;;;;;;;1.27;62.41;101831.03;5094633;28;20442;-68
2022/03/19 02:26:53;;;;;;;23.70;15.77;;;;;;;1.33;63.23;101828.94;5094128;28;20404;-68
2022/03/19 02:29:20;;;;;;;28.63;17.27;;;;;;;1.43;62.25;101830.13;5094182;28;20445;-68
2022/03/19 02:31:49;;;;;;;24.43;16.87;;;;;;;1.50;62.17;101830.63;5093842;28;20437;-68
2022/03/19 02:34:16;;;;;;;28.90;16.43;;;;;;;1.56;61.67;101825.09;5093862;28;20437;-69
2022/03/19 02:36:43;;;;;;;24.80;16.23;;;;;;;1.48;62.38;101827.28;5094064;28;20441;-68
2022/03/19 02:39:16;;;;;;;31.53;18.17;;;;;;;1.43;61.92;101824.06;5093572;28;20480;-68
2022/03/19 02:41:43;;;;;;;27.43;18.40;;;;;;;1.42;61.66;101823.19;5094277;28;20511;-68
2022/03/19 02:44:10;;;;;;;31.27;18.77;;;;;;;1.44;63.11;101826.59;5093526;28;20478;-68
2022/03/19 02:46:42;;;;;;;24.73;17.37;;;;;;;1.46;62.80;101819.50;5094174;28;20437;-68
2022/03/19 02:49:09;;;;;;;29.00;19.23;;;;;;;1.41;62.68;101821.53;5093875;28;20426;-68
2022/03/19 02:51:37;;;;;;;30.10;18.87;;;;;;;1.39;62.73;101823.34;5093424;28;20939;-69
2022/03/19 02:54:05;;;;;;;38.30;20.37;;;;;;;1.42;63.55;101817.97;5093719;28;20433;-67
2022/03/19 02:56:35;;;;;;;38.13;22.63;;;;;;;1.38;63.13;101816.44;5094249;28;20501;-68
2022/03/19 02:59:08;;;;;;;43.30;24.87;;;;;;;1.39;63.33;101815.50;5093862;28;20468;-68
2022/03/19 03:01:35;;;;;;;30.20;19.60;;;;;;;1.45;63.71;101815.19;5093728;28;20441;-68
2022/03/19 03:04:02;;;;;;;38.63;21.37;;;;;;;1.51;63.67;101817.47;5093841;28;20429;-68
2022/03/19 03:06:29;;;;;;;88.80;33.70;;;;;;;1.47;63.00;101830.81;5094356;28;20504;-68
2022/03/19 03:08:56;;;;;;;57.50;25.73;;;;;;;1.46;63.48;101824.72;5093412;28;20448;-68
2022/03/19 03:11:23;;;;;;;86.70;34.23;;;;;;;1.53;62.91;101830.50;5094185;28;20437;-68
2022/03/19 03:13:51;;;;;;;80.57;34.70;;;;;;;1.57;63.05;101829.41;5093031;28;20446;-70
2022/03/19 03:16:18;;;;;;;35.67;20.57;;;;;;;1.58;62.73;101829.31;5093236;28;20433;-69
2022/03/19 03:18:45;;;;;;;32.50;18.70;;;;;;;1.64;63.18;101829.00;5093761;28;20433;-69
2022/03/19 03:21:13;;;;;;;27.40;17.70;;;;;;;1.60;63.23;101827.47;5092854;28;20445;-69
2022/03/19 03:23:40;;;;;;;39.67;22.13;;;;;;;1.43;62.71;101819.66;5092870;28;20475;-69
2022/03/19 03:26:07;;;;;;;40.13;22.07;;;;;;;1.28;62.94;101827.47;5092778;28;20927;-68
2022/03/19 03:28:34;;;;;;;38.17;23.43;;;;;;;1.28;63.75;101819.63;5093654;28;20437;-68
2022/03/19 03:31:02;;;;;;;31.93;18.30;;;;;;;1.22;63.21;101815.56;5091950;28;20505;-68
2022/03/19 03:33:29;;;;;;;24.80;13.93;;;;;;;1.10;63.46;101816.19;5093541;28;20429;-68
2022/03/19 03:35:55;;;;;;;17.20;13.23;;;;;;;1.10;63.35;101825.81;5093013;28;20447;-68
2022/03/19 03:38:22;;;;;;;21.17;14.07;;;;;;;1.00;63.78;101814.97;5092627;28;20437;-68
2022/03/19 03:40:49;;;;;;;28.43;17.20;;;;;;;1.21;63.43;101821.72;5092516;28;20897;-68
2022/03/19 03:43:16;;;;;;;23.47;16.07;;;;;;;1.16;63.26;101815.88;5093130;28;20811;-68
2022/03/19 03:45:42;;;;;;;21.73;14.87;;;;;;;1.11;63.95;101825.75;5093069;28;20497;-69
2022/03/19 03:48:10;;;;;;;21.97;14.17;;;;;;;0.89;64.83;101806.00;5093005;28;20438;-69
2022/03/19 03:50:38;;;;;;;25.57;15.97;;;;;;;1.17;64.00;101824.56;5092146;28;20901;-69
2022/03/19 03:53:05;;;;;;;22.43;16.20;;;;;;;1.23;63.31;101819.03;5092362;28;21021;-69
2022/03/19 03:55:32;;;;;;;21.23;16.40;;;;;;;1.08;63.55;101823.28;5092681;28;20435;-69
2022/03/19 03:58:00;;;;;;;35.57;19.00;;;;;;;1.08;63.97;101823.28;5092654;28;20462;-69
2022/03/19 04:00:27;;;;;;;31.17;18.93;;;;;;;1.20;64.44;101816.56;5092476;28;20474;-69
2022/03/19 04:02:54;;;;;;;31.77;17.93;;;;;;;1.18;63.65;101819.25;5092505;28;20441;-69
2022/03/19 04:05:22;;;;;;;25.90;17.77;;;;;;;1.24;63.99;101829.41;5093310;28;20557;-68
2022/03/19 04:07:49;;;;;;;28.97;18.03;;;;;;;1.31;64.04;101825.53;5092989;28;20433;-68
2022/03/19 04:10:16;;;;;;;23.80;16.90;;;;;;;1.32;64.04;101832.47;5092153;28;21009;-69
2022/03/19 04:12:44;;;;;;;22.97;15.63;;;;;;;1.28;63.55;101824.84;5092472;28;20441;-69
2022/03/19 04:15:11;;;;;;;23.97;16.37;;;;;;;1.27;63.44;101824.03;5092438;28;20445;-69
2022/03/19 04:17:38;;;;;;;25.27;16.40;;;;;;;1.27;63.86;101828.41;5092397;28;20448;-68
2022/03/19 04:20:06;;;;;;;19.00;15.30;;;;;;;1.25;64.60;101812.78;5092407;28;20533;-68
2022/03/19 04:22:36;;;;;;;20.53;15.47;;;;;;;1.33;63.89;101822.84;5092515;28;20444;-69
2022/03/19 04:25:03;;;;;;;23.23;15.43;;;;;;;1.43;64.00;101824.06;5093071;28;20471;-69
2022/03/19 04:27:30;;;;;;;26.20;15.97;;;;;;;1.57;63.08;101821.53;5092302;28;20445;-69
2022/03/19 04:29:56;;;;;;;24.87;16.63;;;;;;;1.62;62.39;101823.00;5091935;28;20445;-69
2022/03/19 04:32:23;;;;;;;24.60;16.73;;;;;;;1.65;62.29;101835.06;5092229;28;20452;-69
2022/03/19 04:34:50;;;;;;;32.67;20.43;;;;;;;1.73;62.43;101831.13;5092152;28;20441;-69
2022/03/19 04:37:17;;;;;;;30.57;17.67;;;;;;;1.73;62.17;101828.50;5091999;28;20806;-69
2022/03/19 04:39:45;;;;;;;45.33;18.17;;;;;;;1.76;61.73;101825.69;5092903;28;20479;-69
2022/03/19 04:42:11;;;;;;;24.97;15.77;;;;;;;1.75;61.48;101831.88;5094076;28;20948;-69
2022/03/19 04:44:38;;;;;;;24.30;15.17;;;;;;;1.75;60.59;101833.66;5097074;28;20441;-69
2022/03/19 04:47:06;;;;;;;19.60;14.80;;;;;;;1.80;60.40;101835.06;5095622;28;20509;-70
2022/03/19 04:49:32;;;;;;;16.97;15.17;;;;;;;1.81;59.64;101828.94;5096121;28;20487;-69
2022/03/19 04:51:59;;;;;;;18.53;14.63;;;;;;;1.97;59.73;101842.03;5096024;28;20441;-69
2022/03/19 04:54:26;;;;;;;21.20;14.60;;;;;;;2.01;59.08;101831.31;5095748;28;20494;-69
2022/03/19 04:56:54;;;;;;;19.80;13.43;;;;;;;1.81;58.67;101821.06;5096589;28;20502;-69
2022/03/19 04:59:21;;;;;;;24.37;16.03;;;;;;;1.95;57.87;101841.25;5096512;28;20425;-69
2022/03/19 05:01:47;;;;;;;20.30;14.47;;;;;;;1.85;56.97;101842.69;5095917;28;20516;-69
2022/03/19 05:04:14;;;;;;;16.67;13.70;;;;;;;1.87;57.19;101846.94;5096256;28;20432;-70
2022/03/19 05:06:41;;;;;;;17.70;14.00;;;;;;;1.99;57.27;101842.78;5095589;28;21065;-70
2022/03/19 05:11:55;;;;;;;17.80;13.07;;;;;;;2.19;57.74;101846.00;5077725;28;20429;-69
2022/03/19 05:14:22;;;;;;;19.67;12.43;;;;;;;2.18;56.98;101844.31;5095464;28;20822;-69
2022/03/19 05:16:49;;;;;;;17.60;12.43;;;;;;;2.18;56.58;101841.69;5095496;28;20823;-69
2022/03/19 05:19:15;;;;;;;21.33;13.47;;;;;;;2.13;57.40;101843.75;5096277;28;20441;-69
2022/03/19 05:21:42;;;;;;;17.87;13.40;;;;;;;2.16;57.24;101848.78;5095671;28;20436;-69
2022/03/19 05:24:09;;;;;;;21.03;14.30;;;;;;;2.26;56.88;101855.22;5096454;28;20433;-69
2022/03/19 05:26:37;;;;;;;20.90;13.97;;;;;;;2.37;56.68;101855.44;5095565;28;20441;-69
2022/03/19 05:29:05;;;;;;;17.97;13.40;;;;;;;2.42;56.19;101849.94;5095417;28;20468;-69
2022/03/19 05:31:32;;;;;;;20.00;14.43;;;;;;;2.40;56.36;101849.19;5095077;28;20448;-69
2022/03/19 05:36:43;;;;;;;19.50;14.73;;;;;;;2.28;56.11;101855.97;5095615;28;20397;-69
2022/03/19 05:39:10;;;;;;;21.60;13.33;;;;;;;2.33;57.12;101853.09;5096044;28;20436;-70
2022/03/19 05:41:36;;;;;;;16.70;12.83;;;;;;;2.31;56.60;101852.31;5095139;28;20480;-69
2022/03/19 05:44:05;;;;;;;14.63;12.93;;;;;;;2.25;55.92;101853.50;5095105;28;20438;-72
2022/03/19 05:46:32;;;;;;;22.93;17.23;;;;;;;2.14;56.55;101855.91;5094792;28;20944;-69
2022/03/19 05:48:59;;;;;;;28.20;18.33;;;;;;;2.20;56.97;101857.34;5094982;28;20498;-69
2022/03/19 05:51:25;;;;;;;27.27;15.63;;;;;;;2.25;56.81;101853.50;5094127;28;20445;-70
2022/03/19 05:53:52;;;;;;;24.60;14.77;;;;;;;2.22;55.51;101848.47;5094041;28;20437;-70
2022/03/19 05:56:19;;;;;;;14.63;12.37;;;;;;;2.30;55.15;101858.50;5094951;28;20441;-69
2022/03/19 05:58:45;;;;;;;20.50;13.17;;;;;;;2.18;55.81;101854.81;5095138;28;20437;-69
2022/03/19 06:01:13;;;;;;;16.50;12.77;;;;;;;2.01;56.71;101857.53;5094645;28;21092;-69
2022/03/19 06:03:40;;;;;;;23.30;14.67;;;;;;;1.92;56.63;101855.38;5094978;28;20425;-69
2022/03/19 06:06:07;;;;;;;24.50;16.23;;;;;;;1.92;56.52;101849.31;5093784;28;20477;-69
2022/03/19 06:08:34;;;;;;;32.00;17.73;;;;;;;1.90;57.01;101852.00;5095283;28;20441;-69
2022/03/19 06:11:00;;;;;;;21.10;15.00;;;;;;;1.89;57.70;101847.72;5093418;28;20449;-68
2022/03/19 06:13:27;;;;;;;24.10;15.67;;;;;;;1.74;57.07;101840.66;5094063;28;21017;-69
2022/03/19 06:15:54;;;;;;;32.53;19.20;;;;;;;1.70;58.60;101841.75;5094224;28;20449;-68
2022/03/19 06:18:22;;;;;;;31.03;19.67;;;;;;;1.61;60.04;101839.63;5094283;28;20953;-69
2022/03/19 06:20:49;;;;;;;27.43;17.53;;;;;;;1.75;60.14;101847.59;5095133;28;20529;-71
2022/03/19 06:23:16;;;;;;;31.17;18.43;;;;;;;1.83;60.09;101842.78;5094294;28;20881;-68
2022/03/19 06:25:42;;;;;;;28.87;23.77;;;;;;;1.87;60.36;101846.94;5094847;28;20506;-69
2022/03/19 06:28:09;;;;;;;26.07;19.80;;;;;;;2.05;59.67;101848.56;5094587;28;20433;-69
2022/03/19 06:30:37;;;;;;;34.20;21.03;;;;;;;2.14;59.26;101845.41;5094838;28;20446;-69
2022/03/19 06:33:04;;;;;;;27.10;17.87;;;;;;;2.20;58.33;101852.94;5094790;28;20990;-76
2022/03/19 06:38:17;;;;;;;30.83;16.57;;;;;;;2.57;57.06;101849.91;5093896;28;20409;-74
2022/03/19 06:40:44;;;;;;;21.37;14.70;;;;;;;2.83;55.20;101851.03;5093627;28;21008;-78
2022/03/19 06:43:12;;;;;;;16.57;14.07;;;;;;;3.02;54.44;101854.28;5093972;28;20506;-78
2022/03/19 06:45:39;;;;;;;23.43;13.70;;;;;;;3.22;53.04;101854.78;5094159;28;20441;-75
2022/03/19 06:48:06;;;;;;;18.33;12.70;;;;;;;3.49;52.93;101847.03;5093759;28;20437;-76
2022/03/19 06:50:35;;;;;;;17.13;12.90;;;;;;;3.75;51.34;101852.38;5093830;28;20445;-75
2022/03/19 06:53:03;;;;;;;16.97;13.87;;;;;;;3.94;51.23;101857.31;5093901;28;20829;-70
2022/03/19 06:55:29;;;;;;;17.27;12.80;;;;;;;4.12;50.48;101854.38;5093789;28;20764;-76
2022/03/19 06:57:57;;;;;;;18.67;13.00;;;;;;;4.06;49.92;101864.44;5093882;28;20441;-73
2022/03/19 07:00:24;;;;;;;17.63;12.80;;;;;;;4.05;49.94;101862.75;5094735;28;20233;-74
2022/03/19 07:02:52;;;;;;;23.73;14.73;;;;;;;3.98;50.17;101851.78;5084102;28;20244;-72
2022/03/19 07:05:20;;;;;;;22.20;14.03;;;;;;;4.37;49.81;101853.66;5084272;28;20226;-74
2022/03/19 07:07:48;;;;;;;34.77;18.23;;;;;;;4.55;48.51;101855.94;5075630;28;20241;-75
2022/03/19 07:10:18;;;;;;;38.77;18.80;;;;;;;4.75;48.48;101855.44;5072935;28;20253;-79
2022/03/19 07:12:45;;;;;;;27.97;17.37;;;;;;;4.96;48.40;101853.19;5072758;28;20202;-75
2022/03/19 07:15:13;;;;;;;27.23;14.10;;;;;;;5.28;46.10;101850.03;5072436;28;20203;-85
2022/03/19 07:17:40;;;;;;;17.87;13.37;;;;;;;5.40;46.52;101859.75;5072954;28;20241;-88
2022/03/19 07:20:08;;;;;;;12.93;11.63;;;;;;;5.79;44.68;101857.00;5087045;28;20222;-82
2022/03/19 07:22:50;;;;;;;16.60;12.70;;;;;;;6.19;43.87;101855.03;5093515;28;20253;-78
2022/03/19 07:25:18;;;;;;;17.73;12.70;;;;;;;6.16;42.74;101863.16;5093456;28;20203;-82
2022/03/19 07:27:45;;;;;;;17.03;12.63;;;;;;;6.14;43.10;101851.88;5092952;28;20664;-81
2022/03/19 07:30:13;;;;;;;20.53;13.57;;;;;;;6.31;43.75;101858.56;5093616;28;20249;-80
2022/03/19 07:32:40;;;;;;;23.83;14.33;;;;;;;6.33;41.67;101854.03;5091874;28;20254;-81
2022/03/19 07:35:08;;;;;;;33.67;16.30;;;;;;;6.35;42.00;101854.75;5089619;28;20187;-81
2022/03/19 07:37:35;;;;;;;20.07;12.07;;;;;;;6.65;42.06;101855.16;5073499;28;20200;-81
2022/03/19 07:40:03;;;;;;;12.27;11.17;;;;;;;6.64;40.82;101840.25;5070048;28;20858;-84
2022/03/19 07:42:28;;;;;;;15.43;12.43;;;;;;;6.71;40.87;101846.78;5069969;28;20534;-83
2022/03/19 07:44:55;;;;;;;25.43;12.43;;;;;;;6.66;41.75;101818.06;5070780;28;20221;-83
2022/03/19 07:47:22;;;;;;;21.17;12.20;;;;;;;7.15;40.21;101846.91;5071881;28;20189;-82
2022/03/19 07:49:49;;;;;;;11.17;9.93;;;;;;;7.69;36.61;101856.72;5072626;28;20207;-84
2022/03/19 07:52:16;;;;;;;12.33;9.97;;;;;;;7.98;35.46;101860.56;5073109;28;20199;-82
2022/03/19 07:54:43;;;;;;;11.33;9.83;;;;;;;8.10;35.39;101850.78;5071891;28;20241;-82
2022/03/19 07:57:11;;;;;;;10.63;9.53;;;;;;;8.34;34.18;101860.28;5072620;28;20653;-81
2022/03/19 07:59:38;;;;;;;12.17;9.90;;;;;;;8.58;33.52;101857.47;5072393;28;20194;-81
2022/03/19 08:02:05;;;;;;;10.80;9.70;;;;;;;8.88;32.41;101855.78;5072151;28;20223;-82
2022/03/19 08:04:33;;;;;;;9.13;8.07;;;;;;;8.88;32.06;101842.53;5072253;28;20279;-81
2022/03/19 08:06:59;;;;;;;9.50;8.73;;;;;;;8.78;31.56;101846.06;5073170;28;20188;-80
2022/03/19 08:09:26;;;;;;;10.80;9.70;;;;;;;8.81;31.12;101851.09;5071810;28;20196;-81
2022/03/19 08:11:53;;;;;;;11.73;8.83;;;;;;;8.83;30.99;101854.47;5090592;28;20195;-81
2022/03/19 08:14:21;;;;;;;10.47;9.47;;;;;;;8.87;30.79;101847.94;5092012;28;20198;-81
2022/03/19 08:16:48;;;;;;;10.80;9.70;;;;;;;8.84;31.26;101850.84;5091630;28;20731;-81
2022/03/19 08:19:15;;;;;;;10.93;9.60;;;;;;;8.99;31.44;101849.56;5092264;28;20199;-81
2022/03/19 08:21:44;;;;;;;9.33;8.40;;;;;;;9.00;30.55;101845.94;5092776;28;20296;-82
2022/03/19 08:24:11;;;;;;;10.07;8.37;;;;;;;8.87;30.64;101834.69;5091966;28;20750;-81
2022/03/19 08:26:38;;;;;;;11.97;8.23;;;;;;;8.99;30.66;101833.66;5090797;28;20282;-81
2022/03/19 08:29:05;;;;;;;12.73;8.13;;;;;;;9.02;31.27;101838.69;5092173;28;20195;-81
2022/03/19 08:31:34;;;;;;;9.97;8.80;;;;;;;8.97;30.24;101843.53;5092011;28;20195;-82
2022/03/19 08:34:00;;;;;;;9.93;9.00;;;;;;;8.89;30.50;101833.59;5092268;28;20241;-81
2022/03/19 08:36:27;;;;;;;9.43;8.63;;;;;;;8.90;30.49;101834.44;5092113;28;20806;-81
2022/03/19 08:41:39;;;;;;;8.63;7.93;;;;;;;8.45;32.50;101836.41;5092676;28;20788;-81
2022/03/19 08:44:06;;;;;;;9.77;8.60;;;;;;;8.51;31.38;101827.13;5092202;28;20195;-81
2022/03/19 08:46:34;;;;;;;19.97;8.20;;;;;;;8.49;31.79;101831.72;5092898;28;20249;-80
2022/03/19 08:49:01;;;;;;;11.03;9.57;;;;;;;8.24;31.79;101818.78;5092074;28;20195;-81
2022/03/19 08:51:43;;;;;;;9.63;7.77;;;;;;;8.15;31.95;101830.09;5091899;28;20221;-81
2022/03/19 08:54:11;;;;;;;8.87;7.93;;;;;;;8.21;32.61;101830.47;5092558;28;20196;-82
2022/03/19 08:56:38;;;;;;;8.37;7.57;;;;;;;8.23;31.65;101822.41;5091928;28;20248;-82
2022/03/19 08:59:06;;;;;;;8.87;7.97;;;;;;;8.31;32.36;101830.56;5091927;28;20187;-82
2022/03/19 09:01:34;;;;;;;9.23;8.33;;;;;;;8.33;31.95;101828.66;5091619;28;20248;-82
2022/03/19 09:04:01;;;;;;;9.83;8.80;;;;;;;8.17;32.79;101823.69;5091985;28;20241;-82
2022/03/19 09:06:28;;;;;;;11.03;8.77;;;;;;;8.17;32.19;101822.88;5092651;28;20272;-82
2022/03/19 09:08:54;;;;;;;11.77;8.03;;;;;;;7.80;32.10;101805.63;5090360;28;20187;-82
2022/03/19 09:11:23;;;;;;;11.87;9.63;;;;;;;7.80;32.87;101826.78;5077457;28;20200;-82
2022/03/19 09:13:51;;;;;;;13.50;9.57;;;;;;;7.77;32.98;101814.63;5071574;28;20299;-82
2022/03/19 09:16:19;;;;;;;9.30;8.30;;;;;;;7.80;33.38;101824.13;5071345;28;20196;-83
2022/03/19 09:18:47;;;;;;;14.93;8.60;;;;;;;7.77;32.33;101824.38;5071635;28;20204;-82
2022/03/19 09:21:14;;;;;;;16.10;8.60;;;;;;;7.60;33.17;101822.22;5071779;28;20223;-83
2022/03/19 09:23:41;;;;;;;9.83;8.83;;;;;;;7.73;32.87;101825.56;5070956;28;20191;-83
2022/03/19 09:26:07;;;;;;;9.97;8.97;;;;;;;7.70;32.87;101820.53;5071217;28;20188;-83
2022/03/19 09:28:34;;;;;;;15.10;9.13;;;;;;;7.69;33.54;101816.19;5072917;28;20625;-83
2022/03/19 09:31:01;;;;;;;9.90;9.00;;;;;;;7.35;33.63;101822.44;5074968;28;20195;-82
2022/03/19 09:33:28;;;;;;;12.70;8.73;;;;;;;7.31;33.66;101821.00;5075004;28;20544;-82
2022/03/19 09:35:57;;;;;;;10.93;8.50;;;;;;;7.34;33.39;101808.38;5074909;28;20194;-83
2022/03/19 09:38:24;;;;;;;9.57;8.77;;;;;;;7.42;33.22;101818.34;5074592;28;20196;-83
2022/03/19 09:40:51;;;;;;;9.77;8.97;;;;;;;7.45;33.02;101810.19;5074626;28;20219;-84
2022/03/19 09:43:18;;;;;;;13.40;10.10;;;;;;;7.52;33.79;101800.81;5075218;28;20256;-85
2022/03/19 09:45:45;;;;;;;17.40;11.37;;;;;;;7.64;33.40;101813.91;5074723;28;20199;-84
2022/03/19 09:48:13;;;;;;;12.23;9.43;;;;;;;7.89;33.18;101818.09;5075555;28;20196;-84
2022/03/19 09:50:41;;;;;;;21.50;10.33;;;;;;;7.97;33.57;101815.69;5074738;28;20196;-85
2022/03/19 09:53:10;;;;;;;10.37;9.37;;;;;;;8.22;32.42;101820.72;5075522;28;20199;-83
2022/03/19 09:55:39;;;;;;;18.87;13.63;;;;;;;8.40;31.69;101820.06;5074381;28;20672;-83
2022/03/19 09:58:06;;;;;;;11.10;8.43;;;;;;;8.40;31.41;101821.88;5074908;28;20188;-84
2022/03/19 10:00:33;;;;;;;11.23;8.53;;;;;;;8.44;30.39;101824.16;5074338;28;20196;-83
2022/03/19 10:03:02;;;;;;;8.73;7.93;;;;;;;8.27;30.86;101821.19;5074131;28;20223;-83
2022/03/19 10:11:01;;;;;;;34.00;10.73;;;;;;;8.51;32.67;101816.53;5085571;28;20201;-84
2022/03/19 10:13:28;;;;;;;16.70;9.33;;;;;;;8.72;32.31;101804.16;5095073;28;20191;-83
2022/03/19 10:15:55;;;;;;;11.43;9.30;;;;;;;8.61;31.20;101791.81;5094397;28;20192;-83
2022/03/19 10:18:27;;;;;;;11.70;8.93;;;;;;;8.73;31.74;101805.84;5094150;28;20639;-83
2022/03/19 10:20:54;;;;;;;9.30;8.47;;;;;;;8.85;31.59;101802.16;5096415;28;20183;-83
2022/03/19 10:23:32;;;;;;;10.83;9.77;;;;;;;9.07;31.06;101804.69;5096820;28;20509;-82
2022/03/19 10:25:59;;;;;;;18.13;12.40;;;;;;;8.90;30.94;101808.75;5093752;28;20704;-83
2022/03/19 10:28:30;;;;;;;12.53;10.57;;;;;;;8.49;31.52;101808.72;5095102;28;20191;-82
2022/03/19 10:30:57;;;;;;;14.80;9.33;;;;;;;8.52;31.99;101800.53;5094388;28;20254;-82
2022/03/19 10:33:27;;;;;;;48.53;14.70;;;;;;;8.60;31.96;101795.44;5094581;28;20191;-82
2022/03/19 10:36:06;;;;;;;86.60;39.53;;;;;;;8.75;32.54;101790.66;5093986;28;20209;-82
2022/03/19 10:38:42;;;;;;;128.17;55.57;;;;;;;8.89;30.94;101787.69;5093331;28;20277;-82
2022/03/19 10:41:09;;;;;;;10.37;9.47;;;;;;;9.14;30.63;101798.72;5093967;28;20217;-82
2022/03/19 10:43:36;;;;;;;14.70;12.03;;;;;;;9.28;30.82;101792.25;5094156;28;20264;-82
2022/03/19 10:46:04;;;;;;;17.23;12.90;;;;;;;9.39;30.88;101786.88;5093532;28;20196;-82
2022/03/19 10:48:32;;;;;;;19.30;14.00;;;;;;;9.43;30.33;101780.31;5094457;28;20260;-82
2022/03/19 10:50:59;;;;;;;12.93;11.63;;;;;;;9.47;30.50;101774.63;5093622;28;20204;-82
2022/03/19 10:53:26;;;;;;;16.57;11.30;;;;;;;9.66;30.24;101780.00;5093592;28;20667;-82
2022/03/19 10:55:54;;;;;;;14.73;10.20;;;;;;;9.72;30.57;101776.78;5093415;28;20197;-83
2022/03/19 10:58:22;;;;;;;16.00;10.50;;;;;;;9.75;29.85;101765.91;5093590;28;20629;-83
2022/03/19 11:00:50;;;;;;;14.20;11.13;;;;;;;9.62;30.41;101759.16;5093901;28;20572;-83
2022/03/19 11:03:20;;;;;;;17.80;14.70;;;;;;;9.46;30.09;101761.47;5093432;28;20318;-83
2022/03/19 11:05:49;;;;;;;224.73;112.67;;;;;;;9.20;31.65;101747.00;5093628;28;20222;-83
2022/03/19 11:08:20;;;;;;;36.63;20.57;;;;;;;9.26;31.70;101757.06;5093716;28;20191;-84
2022/03/19 11:10:50;;;;;;;13.73;9.40;;;;;;;9.16;31.06;101748.22;5084685;28;20191;-83
2022/03/19 11:13:22;;;;;;;11.30;9.70;;;;;;;9.06;31.25;101747.31;5072863;28;20644;-84
2022/03/19 11:15:51;;;;;;;20.90;11.57;;;;;;;9.10;31.31;101748.75;5072772;28;20184;-83
2022/03/19 11:18:21;;;;;;;19.70;9.83;;;;;;;9.05;31.32;101743.00;5072702;28;20191;-82
2022/03/19 11:20:49;;;;;;;16.23;10.07;;;;;;;9.04;31.33;101736.03;5073024;28;20311;-83
2022/03/19 11:23:20;;;;;;;13.77;10.47;;;;;;;8.94;31.45;101730.66;5072753;28;20658;-83
2022/03/19 11:25:51;;;;;;;12.60;9.93;;;;;;;9.00;30.33;101739.91;5072785;28;20191;-82
2022/03/19 11:28:20;;;;;;;8.90;8.20;;;;;;;8.96;30.66;101722.59;5073700;28;20184;-83
2022/03/19 11:31:01;;;;;;;8.17;7.57;;;;;;;9.12;29.91;101728.25;5073050;28;20196;-82
2022/03/19 11:33:31;;;;;;;9.47;7.80;;;;;;;9.43;30.11;101727.25;5072453;28;20675;-81
2022/03/19 11:36:07;;;;;;;8.40;7.57;;;;;;;9.63;29.28;101721.88;5072381;28;20211;-82
2022/03/19 11:38:39;;;;;;;8.73;8.03;;;;;;;9.84;29.45;101721.78;5072224;28;20184;-83
2022/03/19 11:41:23;;;;;;;8.17;7.47;;;;;;;10.15;28.91;101716.28;5073155;28;20180;-82